100LL.CA
Aviation Fuel Pricing for Canadians
Please upgrade your browser - Tested with IE9, FireFox, Chrome, Safari

Fuel Prices Airport Info Airport List METAR / TAF Kneeboard RSS

Reference Airport: Langley Regional, BC
N 49 06 03   W 122 37 51

Enter a list of
Airport Idents:
Sort Method: As Entered    By Ident   

CYVR
METAR CYVR 211900Z 24007KT 30SM FEW250 21/14 A3013 RMK CI1 CONTRAILS SLP203 DENSITY ALT 500FT
TAF CYVR 211738Z 2118/2224 VRB03KT P6SM SCT240 BECMG 2118/2120 27010KT FM220300 27008KT P6SM SKC BECMG 2209/2211 09006KT RMK NXT FCST BY 212100Z
CYXX
METAR CYXX 211900Z VRB03KT 30SM FEW210 22/12 A3012 RMK CI2 FU OVR DIST MTS N-SE SLP202 DENSITY ALT 900FT
TAF CYXX 211738Z 2118/2218 VRB03KT P6SM FEW140 BECMG 2118/2120 24007KT FM220900 VRB03KT P6SM SKC PROB30 2210/2215 1/2SM FG RMK NXT FCST BY 220000Z
KBLI
METAR KBLI 211853Z 03004KT 10SM CLR 22/13 A3013 RMK AO2 SLP207 T02220133
TAF KBLI 211720Z 2118/2218 00000KT P6SM SKC FM212100 24006KT P6SM SKC FM220400 VRB03KT P6SM SKC